sensor_id;sensor_type;location;lat;lon;timestamp;temperature;humidity
3566;DHT22;1797;51.844;7.684;2022-07-23T00:02:05;16.60;1.00
3566;DHT22;1797;51.844;7.684;2022-07-23T00:04:32;16.50;1.00
3566;DHT22;1797;51.844;7.684;2022-07-23T00:06:57;16.50;1.00
3566;DHT22;1797;51.844;7.684;2022-07-23T00:09:23;16.50;1.00
3566;DHT22;1797;51.844;7.684;2022-07-23T00:11:49;16.50;1.00
3566;DHT22;1797;51.844;7.684;2022-07-23T00:14:14;16.40;3.10
3566;DHT22;1797;51.844;7.684;2022-07-23T00:16:40;16.40;99.90
3566;DHT22;1797;51.844;7.684;2022-07-23T00:19:05;16.50;99.90
3566;DHT22;1797;51.844;7.684;2022-07-23T00:21:31;16.40;99.90
3566;DHT22;1797;51.844;7.684;2022-07-23T00:23:56;16.40;99.90
3566;DHT22;1797;51.844;7.684;2022-07-23T00:26:22;16.40;99.90
3566;DHT22;1797;51.844;7.684;2022-07-23T00:28:48;16.40;99.90
3566;DHT22;1797;51.844;7.684;2022-07-23T00:31:13;16.40;99.90
3566;DHT22;1797;51.844;7.684;2022-07-23T00:33:39;16.40;99.90
3566;DHT22;1797;51.844;7.684;2022-07-23T00:36:04;16.30;99.90
3566;DHT22;1797;51.844;7.684;2022-07-23T00:38:30;16.40;99.90
3566;DHT22;1797;51.844;7.684;2022-07-23T00:40:56;16.40;99.90
3566;DHT22;1797;51.844;7.684;2022-07-23T00:43:21;16.40;99.90
3566;DHT22;1797;51.844;7.684;2022-07-23T00:45:47;16.30;99.90
3566;DHT22;1797;51.844;7.684;2022-07-23T00:48:13;16.40;99.90
3566;DHT22;1797;51.844;7.684;2022-07-23T00:50:38;16.60;99.90
3566;DHT22;1797;51.844;7.684;2022-07-23T00:53:05;16.30;99.90
3566;DHT22;1797;51.844;7.684;2022-07-23T00:55:30;16.20;99.90
3566;DHT22;1797;51.844;7.684;2022-07-23T00:57:57;16.20;99.90
3566;DHT22;1797;51.844;7.684;2022-07-23T01:00:23;16.10;99.90
3566;DHT22;1797;51.844;7.684;2022-07-23T01:02:49;16.30;99.90
3566;DHT22;1797;51.844;7.684;2022-07-23T01:05:15;16.10;99.90
3566;DHT22;1797;51.844;7.684;2022-07-23T01:07:41;16.30;99.90
3566;DHT22;1797;51.844;7.684;2022-07-23T01:10:07;16.00;99.90
3566;DHT22;1797;51.844;7.684;2022-07-23T01:12:53;16.10;99.90
3566;DHT22;1797;51.844;7.684;2022-07-23T01:15:18;16.20;99.90
3566;DHT22;1797;51.844;7.684;2022-07-23T01:17:44;15.90;99.90
3566;DHT22;1797;51.844;7.684;2022-07-23T01:20:10;16.00;99.90
3566;DHT22;1797;51.844;7.684;2022-07-23T01:22:35;16.00;99.90
3566;DHT22;1797;51.844;7.684;2022-07-23T01:25:01;16.00;99.90
3566;DHT22;1797;51.844;7.684;2022-07-23T01:27:26;16.00;99.90
3566;DHT22;1797;51.844;7.684;2022-07-23T01:29:54;16.00;99.90
3566;DHT22;1797;51.844;7.684;2022-07-23T01:32:20;16.00;99.90
3566;DHT22;1797;51.844;7.684;2022-07-23T01:34:45;16.00;99.90
3566;DHT22;1797;51.844;7.684;2022-07-23T01:37:11;16.00;99.90
3566;DHT22;1797;51.844;7.684;2022-07-23T01:39:36;16.00;99.90
3566;DHT22;1797;51.844;7.684;2022-07-23T01:42:02;16.00;99.90
3566;DHT22;1797;51.844;7.684;2022-07-23T01:44:28;16.10;99.90
3566;DHT22;1797;51.844;7.684;2022-07-23T01:46:53;15.90;99.90
3566;DHT22;1797;51.844;7.684;2022-07-23T01:49:19;16.10;99.90
3566;DHT22;1797;51.844;7.684;2022-07-23T01:51:44;16.20;99.90
3566;DHT22;1797;51.844;7.684;2022-07-23T01:54:29;16.20;99.90
3566;DHT22;1797;51.844;7.684;2022-07-23T01:56:55;16.10;99.90
3566;DHT22;1797;51.844;7.684;2022-07-23T02:01:47;16.00;99.90
3566;DHT22;1797;51.844;7.684;2022-07-23T02:04:14;16.10;99.90
3566;DHT22;1797;51.844;7.684;2022-07-23T02:06:39;16.00;99.90
3566;DHT22;1797;51.844;7.684;2022-07-23T02:09:05;16.10;99.90
3566;DHT22;1797;51.844;7.684;2022-07-23T02:11:30;15.90;99.90
3566;DHT22;1797;51.844;7.684;2022-07-23T02:13:56;15.90;99.90
3566;DHT22;1797;51.844;7.684;2022-07-23T02:16:21;15.90;99.90
3566;DHT22;1797;51.844;7.684;2022-07-23T02:18:47;15.90;99.90
3566;DHT22;1797;51.844;7.684;2022-07-23T02:21:12;15.80;99.90
3566;DHT22;1797;51.844;7.684;2022-07-23T02:23:38;15.80;99.90
3566;DHT22;1797;51.844;7.684;2022-07-23T02:26:04;15.70;99.90
3566;DHT22;1797;51.844;7.684;2022-07-23T02:28:30;15.80;99.90
3566;DHT22;1797;51.844;7.684;2022-07-23T02:30:55;15.70;99.90
3566;DHT22;1797;51.844;7.684;2022-07-23T02:35:47;16.30;99.90
3566;DHT22;1797;51.844;7.684;2022-07-23T02:38:12;15.60;99.90
3566;DHT22;1797;51.844;7.684;2022-07-23T02:40:38;15.70;99.90
3566;DHT22;1797;51.844;7.684;2022-07-23T02:43:06;15.30;99.90
3566;DHT22;1797;51.844;7.684;2022-07-23T02:45:31;15.40;99.90
3566;DHT22;1797;51.844;7.684;2022-07-23T02:47:57;15.30;99.90
3566;DHT22;1797;51.844;7.684;2022-07-23T02:57:48;15.20;99.90
3566;DHT22;1797;51.844;7.684;2022-07-23T03:02:40;15.40;99.90
3566;DHT22;1797;51.844;7.684;2022-07-23T03:05:06;15.40;99.90
3566;DHT22;1797;51.844;7.684;2022-07-23T03:07:32;15.40;99.90
3566;DHT22;1797;51.844;7.684;2022-07-23T03:09:57;15.30;99.90
3566;DHT22;1797;51.844;7.684;2022-07-23T03:12:25;15.20;99.90
3566;DHT22;1797;51.844;7.684;2022-07-23T03:14:50;15.30;99.90
3566;DHT22;1797;51.844;7.684;2022-07-23T03:17:16;15.00;99.90
3566;DHT22;1797;51.844;7.684;2022-07-23T03:24:34;15.20;99.90
3566;DHT22;1797;51.844;7.684;2022-07-23T03:27:24;15.00;99.90
3566;DHT22;1797;51.844;7.684;2022-07-23T03:29:54;14.80;99.90
3566;DHT22;1797;51.844;7.684;2022-07-23T03:39:41;14.90;99.90
3566;DHT22;1797;51.844;7.684;2022-07-23T03:44:33;14.90;99.90
3566;DHT22;1797;51.844;7.684;2022-07-23T03:47:01;14.90;99.90
3566;DHT22;1797;51.844;7.684;2022-07-23T03:49:27;15.00;99.90
3566;DHT22;1797;51.844;7.684;2022-07-23T03:51:53;15.00;99.90
3566;DHT22;1797;51.844;7.684;2022-07-23T03:54:18;15.00;99.90
3566;DHT22;1797;51.844;7.684;2022-07-23T03:56:44;15.20;99.90
3566;DHT22;1797;51.844;7.684;2022-07-23T03:59:10;14.70;99.90
3566;DHT22;1797;51.844;7.684;2022-07-23T04:01:35;15.40;99.90
3566;DHT22;1797;51.844;7.684;2022-07-23T04:04:01;15.00;99.90
3566;DHT22;1797;51.844;7.684;2022-07-23T04:06:27;15.00;99.90
3566;DHT22;1797;51.844;7.684;2022-07-23T04:08:53;15.70;99.90
3566;DHT22;1797;51.844;7.684;2022-07-23T04:11:19;14.80;99.90
3566;DHT22;1797;51.844;7.684;2022-07-23T04:13:44;14.80;99.90
3566;DHT22;1797;51.844;7.684;2022-07-23T04:16:10;14.90;99.90
3566;DHT22;1797;51.844;7.684;2022-07-23T04:18:35;14.80;99.90
3566;DHT22;1797;51.844;7.684;2022-07-23T04:21:01;14.80;99.90
3566;DHT22;1797;51.844;7.684;2022-07-23T04:23:26;14.80;99.90
3566;DHT22;1797;51.844;7.684;2022-07-23T04:25:52;14.90;99.90
3566;DHT22;1797;51.844;7.684;2022-07-23T04:28:17;14.50;99.90
3566;DHT22;1797;51.844;7.684;2022-07-23T04:30:43;14.90;99.90
3566;DHT22;1797;51.844;7.684;2022-07-23T04:35:36;14.90;99.90
3566;DHT22;1797;51.844;7.684;2022-07-23T04:38:03;14.90;99.90
3566;DHT22;1797;51.844;7.684;2022-07-23T04:40:29;14.70;99.90
3566;DHT22;1797;51.844;7.684;2022-07-23T04:42:55;14.60;99.90
3566;DHT22;1797;51.844;7.684;2022-07-23T04:45:21;14.40;99.90
3566;DHT22;1797;51.844;7.684;2022-07-23T04:47:48;14.00;99.90
3566;DHT22;1797;51.844;7.684;2022-07-23T04:50:14;14.80;99.90
3566;DHT22;1797;51.844;7.684;2022-07-23T04:52:44;14.60;99.90
3566;DHT22;1797;51.844;7.684;2022-07-23T04:55:10;14.90;99.90
3566;DHT22;1797;51.844;7.684;2022-07-23T04:57:35;14.90;99.90
3566;DHT22;1797;51.844;7.684;2022-07-23T05:00:02;14.60;99.90
3566;DHT22;1797;51.844;7.684;2022-07-23T05:02:28;14.80;99.90
3566;DHT22;1797;51.844;7.684;2022-07-23T05:04:55;15.00;99.90
3566;DHT22;1797;51.844;7.684;2022-07-23T05:07:21;14.90;99.90
3566;DHT22;1797;51.844;7.684;2022-07-23T05:09:46;14.80;99.90
3566;DHT22;1797;51.844;7.684;2022-07-23T05:12:12;15.00;99.90
3566;DHT22;1797;51.844;7.684;2022-07-23T05:14:38;15.20;99.90
3566;DHT22;1797;51.844;7.684;2022-07-23T05:17:03;15.30;99.90
3566;DHT22;1797;51.844;7.684;2022-07-23T05:19:29;15.20;99.90
3566;DHT22;1797;51.844;7.684;2022-07-23T05:21:54;15.30;99.90
3566;DHT22;1797;51.844;7.684;2022-07-23T05:24:20;15.00;99.90
3566;DHT22;1797;51.844;7.684;2022-07-23T05:26:45;15.10;99.90
3566;DHT22;1797;51.844;7.684;2022-07-23T05:29:11;15.40;99.90
3566;DHT22;1797;51.844;7.684;2022-07-23T05:31:36;15.60;99.90
3566;DHT22;1797;51.844;7.684;2022-07-23T05:34:02;15.60;99.90
3566;DHT22;1797;51.844;7.684;2022-07-23T05:36:28;15.40;99.90
3566;DHT22;1797;51.844;7.684;2022-07-23T05:38:53;15.50;99.90
3566;DHT22;1797;51.844;7.684;2022-07-23T05:41:19;15.40;99.90
3566;DHT22;1797;51.844;7.684;2022-07-23T05:43:44;15.70;99.90
3566;DHT22;1797;51.844;7.684;2022-07-23T05:46:10;15.80;99.90
3566;DHT22;1797;51.844;7.684;2022-07-23T05:48:35;15.40;99.90
3566;DHT22;1797;51.844;7.684;2022-07-23T05:51:01;15.70;99.90
3566;DHT22;1797;51.844;7.684;2022-07-23T05:53:28;15.70;99.90
3566;DHT22;1797;51.844;7.684;2022-07-23T05:55:54;15.80;99.90
3566;DHT22;1797;51.844;7.684;2022-07-23T05:58:20;15.80;99.90
3566;DHT22;1797;51.844;7.684;2022-07-23T06:00:45;15.90;99.90
3566;DHT22;1797;51.844;7.684;2022-07-23T06:03:11;15.90;99.90
3566;DHT22;1797;51.844;7.684;2022-07-23T06:05:36;15.90;99.90
3566;DHT22;1797;51.844;7.684;2022-07-23T06:08:02;16.00;99.90
3566;DHT22;1797;51.844;7.684;2022-07-23T06:10:27;16.20;99.90
3566;DHT22;1797;51.844;7.684;2022-07-23T06:15:19;16.30;99.90
3566;DHT22;1797;51.844;7.684;2022-07-23T06:20:11;16.80;99.90
3566;DHT22;1797;51.844;7.684;2022-07-23T06:22:37;16.90;99.90
3566;DHT22;1797;51.844;7.684;2022-07-23T06:25:05;16.60;99.90
3566;DHT22;1797;51.844;7.684;2022-07-23T06:27:31;16.70;99.90
3566;DHT22;1797;51.844;7.684;2022-07-23T06:29:59;16.50;99.90
3566;DHT22;1797;51.844;7.684;2022-07-23T06:34:50;16.70;99.90
3566;DHT22;1797;51.844;7.684;2022-07-23T06:37:18;16.50;99.90
3566;DHT22;1797;51.844;7.684;2022-07-23T06:39:43;16.90;99.90
3566;DHT22;1797;51.844;7.684;2022-07-23T06:49:31;17.70;99.90
3566;DHT22;1797;51.844;7.684;2022-07-23T06:51:57;17.40;1.00
3566;DHT22;1797;51.844;7.684;2022-07-23T06:54:22;17.60;99.90
3566;DHT22;1797;51.844;7.684;2022-07-23T06:56:48;17.70;99.90
3566;DHT22;1797;51.844;7.684;2022-07-23T06:59:14;17.80;1.00
3566;DHT22;1797;51.844;7.684;2022-07-23T07:04:07;18.10;99.90
3566;DHT22;1797;51.844;7.684;2022-07-23T07:13:53;18.40;1.00
3566;DHT22;1797;51.844;7.684;2022-07-23T07:16:21;18.80;1.00
